Condicions actuals
Mostly Clear
Conditions



Pressió:
1017.92 (hPa) - 30.06 (inHG)
Visibilitat:

10.0 (km) - 6.2 (miles)
Base de Núvols

Clar (Mts) - Clar (Feets)
   Temperatura
24  °C
Temperatura
17  °C
P.ros.
65  %
 Humitat
   Velocitat del Vent
10  km/h
5  kts
6  mph
2.7  m/s
   Vent Direcció
N
45°
E
90°
135°
S
180°
225°
O
270°
315°
 130°

Sur   Est
   Airport Data
LELL
Sabadell Airfield
Metar :LELL 181830Z 13005KT 100V160 CAVOK 24/17 Q1018
Wed 18th May 20:30 pm
   Raw Metar Info
Raw METAR is the most common format in the world for the transmission of observational weather data. It is highly standardized through the International Civil Aviation Organization (ICAO), which allows it to be understood throughout most of the world.
   API Info
Data Provided by
https://www.checkwx.com/weather/LELL

Aviation Weather providing METAR, TAF, AIRMET, SIGMET and OUTLOOK Weather Reports
   © Info
CSS/SVG/PHP scripts were developed by weather34.com for use in the weather34 template © 2015-2022

Guide Info provided by Metar-Wikipedia